Time;durP1;ratioP1;P1;durP2;ratioP2;P2;SDS_P1;SDS_P2;PMS_P1;PMS_P2;Temp;Humidity;BMP_temperature;BMP_pressure;BME280_temperature;BME280_humidity;BME280_pressure;Samples;Min_cycle;Max_cycle;Signal;HPM_P1;HPM_P2
2021/04/01 14:04:00;;;;;;;;;;;;;;;;;;1495263;39;19955;-74
2021/04/01 14:09:14;;;;;;;;;;;;;;;;;;1495153;39;20047;-73
2021/04/01 14:10:15;;;;;;;;;;;;;;;;;;1494927;39;19932;-73
2021/04/01 14:11:17;;;;;;;;;;;;;;;;;;1493155;39;19968;-74
2021/04/01 14:12:19;;;;;;;;;;;;;;;;;;1493617;39;19928;-75
2021/04/01 14:13:20;;;;;;;;;;;;;;;;;;1493920;39;20010;-74
2021/04/01 14:14:21;;;;;;;;;;;;;;;;;;1497486;39;19931;-75
2021/04/01 14:15:22;;;;;;;;;;;;;;;;;;1496827;39;20398;-74
2021/04/01 14:16:23;;;;;;;;;;;;;;;;;;1495622;39;20708;-74
2021/04/01 14:17:24;;;;;;;;;;;;;;;;;;1496890;39;19951;-74
2021/04/01 14:18:31;;;;;;;;;;;;;;;;;;1497017;39;20060;-75
2021/04/01 14:19:32;;;;;;;;;;;;;;;;;;1497100;39;19935;-75
2021/04/01 14:20:34;;;;;;;;;;;;;;;;;;1495012;39;20844;-74
2021/04/01 14:21:37;;;;;;;;;;;;;;;;;;1493984;39;19928;-74
2021/04/01 14:22:41;;;;;;;;;;;;;;;;;;1497753;39;20350;-74
2021/04/01 14:23:44;;;;;;;;;;;;;;;;;;1497634;39;19951;-74
2021/04/01 14:24:51;;;;;;;;;;;;;;;;;;1497567;39;19956;-74
2021/04/01 14:25:54;;;;;;;;;;;;;;;;;;1496994;39;19928;-75
2021/04/01 14:27:05;;;;;;;;;;;;;;;;;;1497062;39;20053;-75
2021/04/01 14:28:06;;;;;;;;;;;;;;;;;;1496465;39;19927;-74
2021/04/01 14:29:08;;;;;;;;;;;;;;;;;;1497843;39;19932;-74
2021/04/01 14:30:11;;;;;;;;;;;;;;;;;;1497362;39;20272;-74
2021/04/01 14:31:12;;;;;;;;;;;;;;;;;;1496261;39;19927;-74
2021/04/01 14:32:14;;;;;;;;;;;;;;;;;;1497646;39;20021;-74
2021/04/01 14:33:15;;;;;;;;;;;;;;;;;;1498011;39;20035;-74
2021/04/01 14:34:17;;;;;;;;;;;;;;;;;;1497304;39;19951;-76
2021/04/01 14:35:20;;;;;;;;;;;;;;;;;;1495369;39;20015;-74
2021/04/01 14:36:24;;;;;;;;;;;;;;;;;;1496997;39;20040;-74
2021/04/01 14:37:28;;;;;;;;;;;;;;;;;;1497743;39;20268;-74
2021/04/01 14:38:29;;;;;;;;;;;;;;;;;;1495987;39;19952;-75
2021/04/01 14:39:34;;;;;;;;;;;;;;;;;;1496494;39;19939;-75
2021/04/01 14:41:01;;;;;;;;;;;;;;;;;;1497250;39;19928;-74
2021/04/01 14:42:02;;;;;;;;;;;;;;;;;;1494499;39;19947;-74
2021/04/01 14:43:12;;;;;;;;;;;;;;;;;;1496178;39;19967;-74
2021/04/01 14:44:20;;;;;;;;;;;;;;;;;;1495957;39;20044;-77
2021/04/01 14:45:27;;;;;;;;;;;;;;;;;;1497081;39;20042;-77
2021/04/01 14:46:28;;;;;;;;;;;;;;;;;;1496687;39;20039;-75
2021/04/01 14:47:30;;;;;;;;;;;;;;;;;;1495956;39;19959;-75
2021/04/01 14:48:32;;;;;;;;;;;;;;;;;;1496862;39;19935;-75
2021/04/01 14:49:33;;;;;;;;;;;;;;;;;;1496138;39;20059;-75
2021/04/01 14:50:35;;;;;;;;;;;;;;;;;;1496500;39;19928;-75
2021/04/01 14:51:36;;;;;;;;;;;;;;;;;;1496628;39;20023;-75
2021/04/01 14:52:38;;;;;;;;;;;;;;;;;;1495693;39;20291;-74
2021/04/01 14:53:49;;;;;;;;;;;;;;;;;;1496405;39;19970;-76
2021/04/01 14:54:55;;;;;;;;;;;;;;;;;;1496025;39;19955;-76
2021/04/01 14:55:56;;;;;;;;;;;;;;;;;;1496136;39;19967;-75
2021/04/01 14:57:04;;;;;;;;;;;;;;;;;;1493351;39;19955;-76
2021/04/01 14:58:06;;;;;;;;;;;;;;;;;;1493144;39;20032;-75
2021/04/01 14:59:10;;;;;;;;;;;;;;;;;;1493567;39;20026;-76
2021/04/01 15:00:22;;;;;;;;;;;;;;;;;;1493499;39;20059;-76
2021/04/01 15:01:25;;;;;;;;;;;;;;;;;;1496805;39;19928;-76
2021/04/01 15:02:26;;;;;;;;;;;;;;;;;;1497818;39;19955;-75
2021/04/01 15:03:27;;;;;;;;;;;;;;;;;;1497670;39;20722;-75
2021/04/01 15:04:29;;;;;;;;;;;;;;;;;;1497576;39;20022;-75
2021/04/01 15:05:30;;;;;;;;;;;;;;;;;;1495066;39;20480;-76
2021/04/01 15:06:31;;;;;;;;;;;;;;;;;;1496055;39;20039;-75
2021/04/01 15:07:33;;;;;;;;;;;;;;;;;;1492575;39;19970;-76
2021/04/01 15:08:34;;;;;;;;;;;;;;;;;;1493683;39;19927;-76
2021/04/01 15:09:35;;;;;;;;;;;;;;;;;;1493286;39;19935;-76
2021/04/01 15:10:36;;;;;;;;;;;;;;;;;;1494724;39;19942;-76
2021/04/01 15:11:38;;;;;;;;;;;;;;;;;;1491391;39;20036;-76
2021/04/01 15:12:40;;;;;;;;;;;;;;;;;;1495008;39;19955;-76
2021/04/01 15:13:41;;;;;;;;;;;;;;;;;;1493665;39;20042;-76
2021/04/01 15:14:42;;;;;;;;;;;;;;;;;;1493432;39;19931;-76
2021/04/01 15:15:43;;;;;;;;;;;;;;;;;;1494519;39;19931;-76
2021/04/01 15:16:44;;;;;;;;;;;;;;;;;;1494639;39;19928;-77
2021/04/01 15:17:46;;;;;;;;;;;;;;;;;;1494361;39;19958;-77
2021/04/01 15:18:51;;;;;;;;;;;;;;;;;;1492625;39;20027;-76
2021/04/01 15:19:54;;;;;;;;;;;;;;;;;;1492962;39;20020;-76
2021/04/01 15:20:58;;;;;;;;;;;;;;;;;;1493802;39;19939;-75
2021/04/01 15:21:59;;;;;;;;;;;;;;;;;;1492027;39;20099;-76
2021/04/01 15:23:00;;;;;;;;;;;;;;;;;;1489431;39;20042;-77
2021/04/01 15:24:01;;;;;;;;;;;;;;;;;;1494248;39;19951;-75
2021/04/01 15:25:02;;;;;;;;;;;;;;;;;;1491141;39;20042;-76
2021/04/01 15:26:03;;;;;;;;;;;;;;;;;;1492285;39;20043;-75
2021/04/01 15:27:04;;;;;;;;;;;;;;;;;;1494803;39;19946;-76
2021/04/01 15:28:05;;;;;;;;;;;;;;;;;;1494704;39;20353;-75
2021/04/01 15:29:07;;;;;;;;;;;;;;;;;;1494914;39;19932;-76
2021/04/01 15:30:08;;;;;;;;;;;;;;;;;;1494548;39;20054;-75
2021/04/01 15:31:10;;;;;;;;;;;;;;;;;;1493808;39;19951;-75
2021/04/01 15:32:11;;;;;;;;;;;;;;;;;;1494768;39;20039;-75
2021/04/01 15:33:12;;;;;;;;;;;;;;;;;;1494731;39;19955;-76
2021/04/01 15:34:13;;;;;;;;;;;;;;;;;;1494780;39;19955;-76
2021/04/01 15:35:15;;;;;;;;;;;;;;;;;;1491255;39;20050;-75
2021/04/01 15:36:16;;;;;;;;;;;;;;;;;;1493366;39;20043;-75
2021/04/01 15:37:17;;;;;;;;;;;;;;;;;;1489299;39;19952;-75
2021/04/01 15:38:18;;;;;;;;;;;;;;;;;;1493850;39;19928;-75
2021/04/01 15:39:19;;;;;;;;;;;;;;;;;;1493609;39;20185;-75
2021/04/01 15:40:20;;;;;;;;;;;;;;;;;;1493779;39;20017;-75
2021/04/01 15:41:21;;;;;;;;;;;;;;;;;;1494169;39;20335;-75
2021/04/01 15:42:22;;;;;;;;;;;;;;;;;;1494747;39;19944;-75
2021/04/01 15:43:24;;;;;;;;;;;;;;;;;;1493449;39;20673;-74
2021/04/01 15:44:25;;;;;;;;;;;;;;;;;;1493181;39;20685;-76
2021/04/01 15:45:26;;;;;;;;;;;;;;;;;;1493589;39;19938;-75
2021/04/01 15:46:27;;;;;;;;;;;;;;;;;;1494720;39;20047;-74
2021/04/01 15:47:28;;;;;;;;;;;;;;;;;;1494363;39;20098;-75
2021/04/01 15:48:30;;;;;;;;;;;;;;;;;;1494410;39;19955;-75
2021/04/01 15:49:31;;;;;;;;;;;;;;;;;;1493104;39;20435;-75
2021/04/01 15:50:32;;;;;;;;;;;;;;;;;;1492872;39;19928;-75
2021/04/01 15:51:33;;;;;;;;;;;;;;;;;;1492878;39;20443;-75
2021/04/01 15:52:35;;;;;;;;;;;;;;;;;;1492246;39;19955;-77
2021/04/01 15:53:39;;;;;;;;;;;;;;;;;;1489317;39;20224;-74
2021/04/01 15:54:40;;;;;;;;;;;;;;;;;;1491937;39;20019;-74
2021/04/01 15:55:41;;;;;;;;;;;;;;;;;;1490736;39;20043;-75
2021/04/01 15:56:42;;;;;;;;;;;;;;;;;;1493862;39;19955;-75
2021/04/01 15:57:43;;;;;;;;;;;;;;;;;;1492611;39;20274;-74
2021/04/01 15:58:44;;;;;;;;;;;;;;;;;;1493487;39;20583;-75
2021/04/01 15:59:45;;;;;;;;;;;;;;;;;;1489692;39;20839;-74
2021/04/01 16:00:46;;;;;;;;;;;;;;;;;;1489927;39;19963;-75
2021/04/01 16:01:47;;;;;;;;;;;;;;;;;;1484752;40;20177;-74
2021/04/01 16:02:48;;;;;;;;;;;;;;;;;;1485526;39;20279;-75
2021/04/01 16:03:51;;;;;;;;;;;;;;;;;;1489392;39;19928;-75
2021/04/01 16:04:52;;;;;;;;;;;;;;;;;;1490409;39;19935;-75
2021/04/01 16:05:53;;;;;;;;;;;;;;;;;;1491298;39;20297;-75
2021/04/01 16:06:54;;;;;;;;;;;;;;;;;;1492016;39;19932;-76
2021/04/01 16:07:55;;;;;;;;;;;;;;;;;;1494334;39;19939;-75
2021/04/01 16:08:56;;;;;;;;;;;;;;;;;;1493652;39;19931;-75
2021/04/01 16:09:57;;;;;;;;;;;;;;;;;;1494152;39;19955;-76
2021/04/01 16:11:02;;;;;;;;;;;;;;;;;;1492306;39;19928;-76
2021/04/01 16:12:04;;;;;;;;;;;;;;;;;;1489593;39;19928;-74
2021/04/01 16:13:08;;;;;;;;;;;;;;;;;;1493410;39;19928;-77
2021/04/01 16:14:10;;;;;;;;;;;;;;;;;;1493136;39;19928;-74
2021/04/01 16:15:12;;;;;;;;;;;;;;;;;;1493366;39;19959;-75
2021/04/01 16:16:17;;;;;;;;;;;;;;;;;;1485459;39;19948;-76
2021/04/01 16:17:18;;;;;;;;;;;;;;;;;;1489534;39;20308;-77
2021/04/01 16:18:21;;;;;;;;;;;;;;;;;;1484970;39;20668;-74
2021/04/01 16:19:22;;;;;;;;;;;;;;;;;;1489494;39;19932;-75
2021/04/01 16:20:24;;;;;;;;;;;;;;;;;;1491282;39;19979;-75
2021/04/01 16:21:28;;;;;;;;;;;;;;;;;;1486437;39;20002;-74
2021/04/01 16:22:31;;;;;;;;;;;;;;;;;;1482834;39;19932;-73
2021/04/01 16:23:32;;;;;;;;;;;;;;;;;;1488893;39;19932;-75
2021/04/01 16:24:34;;;;;;;;;;;;;;;;;;1490803;39;19928;-74
2021/04/01 16:25:36;;;;;;;;;;;;;;;;;;1493815;39;19942;-76
2021/04/01 16:26:37;;;;;;;;;;;;;;;;;;1487930;39;19928;-75
2021/04/01 16:27:38;;;;;;;;;;;;;;;;;;1485875;39;20748;-76
2021/04/01 16:28:40;;;;;;;;;;;;;;;;;;1492672;39;19955;-74
2021/04/01 16:29:41;;;;;;;;;;;;;;;;;;1492386;39;19951;-75
2021/04/01 16:30:44;;;;;;;;;;;;;;;;;;1493610;39;19967;-75
2021/04/01 16:31:50;;;;;;;;;;;;;;;;;;1493515;39;19931;-75
2021/04/01 16:32:51;;;;;;;;;;;;;;;;;;1493547;39;20782;-75
2021/04/01 16:33:54;;;;;;;;;;;;;;;;;;1488573;39;19931;-75
2021/04/01 16:35:00;;;;;;;;;;;;;;;;;;1487939;39;19956;-74
2021/04/01 16:36:03;;;;;;;;;;;;;;;;;;1493049;39;19951;-74
2021/04/01 16:37:04;;;;;;;;;;;;;;;;;;1493344;39;20015;-74
2021/04/01 16:38:07;;;;;;;;;;;;;;;;;;1493431;39;20039;-74
2021/04/01 16:39:08;;;;;;;;;;;;;;;;;;1489693;39;20012;-75
2021/04/01 16:40:15;;;;;;;;;;;;;;;;;;1493158;39;20043;-74
2021/04/01 16:41:16;;;;;;;;;;;;;;;;;;1494305;39;20046;-74
2021/04/01 16:42:17;;;;;;;;;;;;;;;;;;1494508;39;20020;-74
2021/04/01 16:43:21;;;;;;;;;;;;;;;;;;1493908;39;19970;-73
2021/04/01 16:44:23;;;;;;;;;;;;;;;;;;1493553;39;19995;-74
2021/04/01 16:45:25;;;;;;;;;;;;;;;;;;1493225;39;20377;-75
2021/04/01 16:46:26;;;;;;;;;;;;;;;;;;1490147;39;20007;-74
2021/04/01 16:47:27;;;;;;;;;;;;;;;;;;1489297;39;19988;-75
2021/04/01 16:48:30;;;;;;;;;;;;;;;;;;1489682;39;20007;-74
2021/04/01 16:49:34;;;;;;;;;;;;;;;;;;1486212;39;20621;-74
2021/04/01 16:50:37;;;;;;;;;;;;;;;;;;1481866;39;19943;-74
2021/04/01 16:51:39;;;;;;;;;;;;;;;;;;1488888;39;20070;-74
2021/04/01 16:53:03;;;;;;;;;;;;;;;;;;1493313;39;20043;-74
2021/04/01 16:54:11;;;;;;;;;;;;;;;;;;1487295;39;19928;-74
2021/04/01 16:55:12;;;;;;;;;;;;;;;;;;1494307;39;20047;-74
2021/04/01 16:56:15;;;;;;;;;;;;;;;;;;1491829;39;20274;-74
2021/04/01 16:57:20;;;;;;;;;;;;;;;;;;1491219;39;19956;-74
2021/04/01 16:58:24;;;;;;;;;;;;;;;;;;1491914;39;20457;-74
2021/04/01 16:59:30;;;;;;;;;;;;;;;;;;1493075;39;20042;-74
2021/04/01 17:00:34;;;;;;;;;;;;;;;;;;1494246;39;20592;-73
2021/04/01 17:01:36;;;;;;;;;;;;;;;;;;1492570;39;20320;-74
2021/04/01 17:02:40;;;;;;;;;;;;;;;;;;1488638;39;19961;-74
2021/04/01 17:03:41;;;;;;;;;;;;;;;;;;1489666;39;19948;-73
2021/04/01 17:04:43;;;;;;;;;;;;;;;;;;1490268;39;19970;-73
2021/04/01 17:05:45;;;;;;;;;;;;;;;;;;1491888;39;19952;-74
2021/04/01 17:06:48;;;;;;;;;;;;;;;;;;1490933;39;19959;-74
2021/04/01 17:07:50;;;;;;;;;;;;;;;;;;1492376;39;19966;-74
2021/04/01 17:08:51;;;;;;;;;;;;;;;;;;1489239;39;20018;-74
2021/04/01 17:09:52;;;;;;;;;;;;;;;;;;1489279;39;19956;-74
2021/04/01 17:10:57;;;;;;;;;;;;;;;;;;1484541;39;20585;-75
2021/04/01 17:11:58;;;;;;;;;;;;;;;;;;1488973;39;20019;-74
2021/04/01 17:13:01;;;;;;;;;;;;;;;;;;1489227;39;19930;-76
2021/04/01 17:14:03;;;;;;;;;;;;;;;;;;1491859;39;20094;-74
2021/04/01 17:15:05;;;;;;;;;;;;;;;;;;1493524;39;19967;-75
2021/04/01 17:16:06;;;;;;;;;;;;;;;;;;1493603;39;20024;-73
2021/04/01 17:17:07;;;;;;;;;;;;;;;;;;1493204;39;20477;-75
2021/04/01 17:18:08;;;;;;;;;;;;;;;;;;1493745;39;20042;-74
2021/04/01 17:19:10;;;;;;;;;;;;;;;;;;1493736;39;20390;-74
2021/04/01 17:20:12;;;;;;;;;;;;;;;;;;1493859;39;20446;-75
2021/04/01 17:21:13;;;;;;;;;;;;;;;;;;1493314;39;19927;-74
2021/04/01 17:22:14;;;;;;;;;;;;;;;;;;1493510;39;19966;-75
2021/04/01 17:23:15;;;;;;;;;;;;;;;;;;1491713;39;20772;-74
2021/04/01 17:24:16;;;;;;;;;;;;;;;;;;1490700;39;20281;-74
2021/04/01 17:25:17;;;;;;;;;;;;;;;;;;1493525;39;19971;-74
2021/04/01 17:26:18;;;;;;;;;;;;;;;;;;1494438;39;19928;-74
2021/04/01 17:27:19;;;;;;;;;;;;;;;;;;1494120;39;20279;-74
2021/04/01 17:28:21;;;;;;;;;;;;;;;;;;1494303;39;19927;-73
2021/04/01 17:29:22;;;;;;;;;;;;;;;;;;1492882;39;20503;-74
2021/04/01 17:30:23;;;;;;;;;;;;;;;;;;1493701;39;19931;-73
2021/04/01 17:31:27;;;;;;;;;;;;;;;;;;1487354;39;19927;-74
2021/04/01 17:32:31;;;;;;;;;;;;;;;;;;1483714;39;20024;-74
2021/04/01 17:33:32;;;;;;;;;;;;;;;;;;1493393;39;19955;-74
2021/04/01 17:34:36;;;;;;;;;;;;;;;;;;1493358;39;20595;-74
2021/04/01 17:35:37;;;;;;;;;;;;;;;;;;1488050;39;21098;-73
2021/04/01 17:36:38;;;;;;;;;;;;;;;;;;1484426;39;19956;-74
2021/04/01 17:37:39;;;;;;;;;;;;;;;;;;1488846;39;19936;-74
2021/04/01 17:38:40;;;;;;;;;;;;;;;;;;1493229;39;19959;-73
2021/04/01 17:39:41;;;;;;;;;;;;;;;;;;1492576;39;20522;-74
2021/04/01 17:40:43;;;;;;;;;;;;;;;;;;1493744;39;19959;-74
2021/04/01 17:41:44;;;;;;;;;;;;;;;;;;1492945;39;20090;-74
2021/04/01 17:42:48;;;;;;;;;;;;;;;;;;1493981;39;19931;-74
2021/04/01 17:43:52;;;;;;;;;;;;;;;;;;1486296;39;19940;-75
2021/04/01 17:44:56;;;;;;;;;;;;;;;;;;1481316;39;19952;-74
2021/04/01 17:46:00;;;;;;;;;;;;;;;;;;1484394;39;20636;-75
2021/04/01 17:47:02;;;;;;;;;;;;;;;;;;1493592;39;20347;-75
2021/04/01 17:48:03;;;;;;;;;;;;;;;;;;1487540;39;19997;-77
2021/04/01 17:49:09;;;;;;;;;;;;;;;;;;1485235;39;19943;-75
2021/04/01 17:50:17;;;;;;;;;;;;;;;;;;1485457;39;20049;-74
2021/04/01 17:51:18;;;;;;;;;;;;;;;;;;1489060;39;20000;-75
2021/04/01 17:52:22;;;;;;;;;;;;;;;;;;1485417;39;19928;-76
2021/04/01 17:53:27;;;;;;;;;;;;;;;;;;1485031;39;19936;-75
2021/04/01 17:54:29;;;;;;;;;;;;;;;;;;1489279;39;19979;-74
2021/04/01 17:55:44;;;;;;;;;;;;;;;;;;1489355;39;19928;-74
2021/04/01 17:56:46;;;;;;;;;;;;;;;;;;1490030;39;20686;-75
2021/04/01 17:57:55;;;;;;;;;;;;;;;;;;1493052;39;19970;-74
2021/04/01 17:58:57;;;;;;;;;;;;;;;;;;1488802;39;20058;-74
2021/04/01 18:00:13;;;;;;;;;;;;;;;;;;1485401;39;19939;-73
2021/04/01 18:01:26;;;;;;;;;;;;;;;;;;1486264;39;19947;-74
2021/04/01 18:02:29;;;;;;;;;;;;;;;;;;1485656;39;20188;-76
2021/04/01 18:23:45;;;;;;;;;;;;;;;;;;1492990;39;20248;-75
2021/04/01 18:24:46;;;;;;;;;;;;;;;;;;1493058;39;19942;-75
2021/04/01 18:25:59;;;;;;;;;;;;;;;;;;1485177;39;19937;-74
2021/04/01 18:28:39;;;;;;;;;;;;;;;;;;1489238;39;20252;-74
2021/04/01 18:29:41;;;;;;;;;;;;;;;;;;1490527;39;19959;-73
2021/04/01 18:30:47;;;;;;;;;;;;;;;;;;1488875;39;19950;-75
2021/04/01 18:32:04;;;;;;;;;;;;;;;;;;1486065;39;20399;-76
2021/04/01 18:36:55;;;;;;;;;;;;;;;;;;1488492;39;19928;-75
2021/04/01 18:38:23;;;;;;;;;;;;;;;;;;1486832;39;20352;-77
2021/04/01 18:39:33;;;;;;;;;;;;;;;;;;1490734;39;20312;-75
2021/04/01 18:41:27;;;;;;;;;;;;;;;;;;1483438;39;20549;-74
2021/04/01 18:43:09;;;;;;;;;;;;;;;;;;1490686;39;19928;-74
2021/04/01 18:44:13;;;;;;;;;;;;;;;;;;1488138;39;19932;-75
2021/04/01 18:49:26;;;;;;;;;;;;;;;;;;1491407;39;19931;-74
2021/04/01 18:50:33;;;;;;;;;;;;;;;;;;1486033;39;19964;-74
2021/04/01 18:51:39;;;;;;;;;;;;;;;;;;1490045;39;19969;-76
2021/04/01 18:52:43;;;;;;;;;;;;;;;;;;1490292;39;19968;-76
2021/04/01 18:53:55;;;;;;;;;;;;;;;;;;1490185;39;20639;-75
2021/04/01 18:56:21;;;;;;;;;;;;;;;;;;1494192;39;20028;-74
2021/04/01 18:58:08;;;;;;;;;;;;;;;;;;1488976;39;20403;-74
2021/04/01 19:00:01;;;;;;;;;;;;;;;;;;1493124;39;20477;-75
2021/04/01 19:01:04;;;;;;;;;;;;;;;;;;1490157;39;19928;-77
2021/04/01 19:02:09;;;;;;;;;;;;;;;;;;1489531;39;20040;-75
2021/04/01 19:03:10;;;;;;;;;;;;;;;;;;1490872;39;19946;-77
2021/04/01 19:04:14;;;;;;;;;;;;;;;;;;1493823;39;19927;-76
2021/04/01 19:05:23;;;;;;;;;;;;;;;;;;1489307;39;19932;-77
2021/04/01 19:06:30;;;;;;;;;;;;;;;;;;1486170;39;19928;-75
2021/04/01 19:07:37;;;;;;;;;;;;;;;;;;1485929;39;20178;-74
2021/04/01 19:08:45;;;;;;;;;;;;;;;;;;1482930;39;19979;-76
2021/04/01 19:09:55;;;;;;;;;;;;;;;;;;1486682;39;19929;-75
2021/04/01 19:22:45;;;;;;;;;;;;;;;;;;1493644;39;20010;-81
2021/04/01 19:23:47;;;;;;;;;;;;;;;;;;1485391;39;20175;-78
2021/04/01 19:24:51;;;;;;;;;;;;;;;;;;1489804;39;19951;-76
2021/04/01 19:25:55;;;;;;;;;;;;;;;;;;1489067;39;20020;-82
2021/04/01 19:26:59;;;;;;;;;;;;;;;;;;1486282;39;19928;-78
2021/04/01 19:28:03;;;;;;;;;;;;;;;;;;1486615;39;20013;-78
2021/04/01 19:29:04;;;;;;;;;;;;;;;;;;1486626;39;20036;-77
2021/04/01 19:30:10;;;;;;;;;;;;;;;;;;1485988;39;19936;-78
2021/04/01 19:31:11;;;;;;;;;;;;;;;;;;1490805;39;20558;-77
2021/04/01 19:32:12;;;;;;;;;;;;;;;;;;1493024;39;19927;-78
2021/04/01 19:33:13;;;;;;;;;;;;;;;;;;1494381;39;20019;-78
2021/04/01 19:34:14;;;;;;;;;;;;;;;;;;1494021;39;19932;-79
2021/04/01 19:35:15;;;;;;;;;;;;;;;;;;1493200;39;19932;-87
2021/04/01 19:36:17;;;;;;;;;;;;;;;;;;1489354;39;19968;-83
2021/04/01 19:37:19;;;;;;;;;;;;;;;;;;1481357;39;19952;-84
2021/04/01 19:38:20;;;;;;;;;;;;;;;;;;1487558;39;20032;-83
2021/04/01 19:39:21;;;;;;;;;;;;;;;;;;1491022;39;20051;-82
2021/04/01 19:40:21;;;;;;;;;;;;;;;;;;1492600;39;19955;-84
2021/04/01 19:41:24;;;;;;;;;;;;;;;;;;1489458;39;19931;-84
2021/04/01 19:42:26;;;;;;;;;;;;;;;;;;1489620;39;19940;-85
2021/04/01 19:43:28;;;;;;;;;;;;;;;;;;1485632;39;20019;-84
2021/04/01 19:44:29;;;;;;;;;;;;;;;;;;1486677;39;19936;-79
2021/04/01 19:45:34;;;;;;;;;;;;;;;;;;1493628;39;20048;-81
2021/04/01 19:46:37;;;;;;;;;;;;;;;;;;1493445;39;20068;-81
2021/04/01 19:47:38;;;;;;;;;;;;;;;;;;1493645;39;19955;-82
2021/04/01 19:48:40;;;;;;;;;;;;;;;;;;1494357;39;19955;-81
2021/04/01 19:49:56;;;;;;;;;;;;;;;;;;1492511;39;20041;-81
2021/04/01 19:50:59;;;;;;;;;;;;;;;;;;1489857;39;19944;-80
2021/04/01 19:52:01;;;;;;;;;;;;;;;;;;1493681;39;20029;-80
2021/04/01 19:53:03;;;;;;;;;;;;;;;;;;1492548;39;20001;-84
2021/04/01 19:54:05;;;;;;;;;;;;;;;;;;1491877;39;19927;-81
2021/04/01 19:55:11;;;;;;;;;;;;;;;;;;1489204;39;19952;-81
2021/04/01 19:56:13;;;;;;;;;;;;;;;;;;1489788;39;20005;-79
2021/04/01 19:57:15;;;;;;;;;;;;;;;;;;1493754;39;20025;-80
2021/04/01 19:58:19;;;;;;;;;;;;;;;;;;1493884;39;19955;-80
2021/04/01 19:59:20;;;;;;;;;;;;;;;;;;1493541;39;20078;-83
2021/04/01 20:00:34;;;;;;;;;;;;;;;;;;1494148;39;20236;-84
2021/04/01 20:01:37;;;;;;;;;;;;;;;;;;1490800;39;20359;-84
2021/04/01 20:02:39;;;;;;;;;;;;;;;;;;1493905;39;20007;-81
2021/04/01 20:03:40;;;;;;;;;;;;;;;;;;1488987;39;19939;-82
2021/04/01 20:04:42;;;;;;;;;;;;;;;;;;1491819;39;19932;-83
2021/04/01 20:05:43;;;;;;;;;;;;;;;;;;1488383;39;19943;-84
2021/04/01 20:06:44;;;;;;;;;;;;;;;;;;1493416;39;19932;-79
2021/04/01 20:07:45;;;;;;;;;;;;;;;;;;1494234;39;19951;-79
2021/04/01 20:08:46;;;;;;;;;;;;;;;;;;1494546;39;19955;-81
2021/04/01 20:09:47;;;;;;;;;;;;;;;;;;1493306;39;19955;-81
2021/04/01 20:10:48;;;;;;;;;;;;;;;;;;1485421;39;19933;-82
2021/04/01 20:11:50;;;;;;;;;;;;;;;;;;1489319;39;20370;-81
2021/04/01 20:12:52;;;;;;;;;;;;;;;;;;1490434;39;19928;-81
2021/04/01 20:13:54;;;;;;;;;;;;;;;;;;1493662;39;19927;-83
2021/04/01 20:14:56;;;;;;;;;;;;;;;;;;1493948;39;20702;-79
2021/04/01 20:15:57;;;;;;;;;;;;;;;;;;1493293;39;20619;-81
2021/04/01 20:16:58;;;;;;;;;;;;;;;;;;1492838;39;19938;-80
2021/04/01 20:17:59;;;;;;;;;;;;;;;;;;1491997;39;19928;-83
2021/04/01 20:19:03;;;;;;;;;;;;;;;;;;1493556;39;19932;-81
2021/04/01 20:20:05;;;;;;;;;;;;;;;;;;1493947;39;20247;-80
2021/04/01 20:21:06;;;;;;;;;;;;;;;;;;1492466;39;19932;-80
2021/04/01 20:22:09;;;;;;;;;;;;;;;;;;1493079;39;19934;-82
2021/04/01 20:23:13;;;;;;;;;;;;;;;;;;1493911;39;20356;-80
2021/04/01 20:24:14;;;;;;;;;;;;;;;;;;1494440;39;20512;-83
2021/04/01 20:25:16;;;;;;;;;;;;;;;;;;1493463;39;20031;-82
2021/04/01 20:26:18;;;;;;;;;;;;;;;;;;1493191;39;20042;-81
2021/04/01 20:27:19;;;;;;;;;;;;;;;;;;1493519;39;20253;-79
2021/04/01 20:28:20;;;;;;;;;;;;;;;;;;1488995;39;20002;-81
2021/04/01 20:29:21;;;;;;;;;;;;;;;;;;1491638;39;19928;-79
2021/04/01 20:30:24;;;;;;;;;;;;;;;;;;1485734;39;19975;-82
2021/04/01 20:31:25;;;;;;;;;;;;;;;;;;1489160;39;20269;-78
2021/04/01 20:32:27;;;;;;;;;;;;;;;;;;1492837;39;19932;-79
2021/04/01 20:33:28;;;;;;;;;;;;;;;;;;1488456;39;19959;-79
2021/04/01 20:34:31;;;;;;;;;;;;;;;;;;1489160;39;20391;-83
2021/04/01 20:35:35;;;;;;;;;;;;;;;;;;1493739;39;19939;-83
2021/04/01 20:36:36;;;;;;;;;;;;;;;;;;1494289;39;20376;-84
2021/04/01 20:37:37;;;;;;;;;;;;;;;;;;1493534;39;19947;-84
2021/04/01 20:38:38;;;;;;;;;;;;;;;;;;1493647;39;20393;-81
2021/04/01 20:39:39;;;;;;;;;;;;;;;;;;1488808;39;20047;-82
2021/04/01 20:40:41;;;;;;;;;;;;;;;;;;1489465;39;19931;-82
2021/04/01 20:41:43;;;;;;;;;;;;;;;;;;1489570;39;19967;-80
2021/04/01 20:42:47;;;;;;;;;;;;;;;;;;1484131;39;19936;-80
2021/04/01 20:43:48;;;;;;;;;;;;;;;;;;1489788;39;19960;-81
2021/04/01 20:44:52;;;;;;;;;;;;;;;;;;1484800;39;19936;-78
2021/04/01 20:45:56;;;;;;;;;;;;;;;;;;1489244;39;20464;-80
2021/04/01 20:46:59;;;;;;;;;;;;;;;;;;1488466;39;19928;-80
2021/04/01 20:48:00;;;;;;;;;;;;;;;;;;1489309;39;20614;-83
2021/04/01 20:49:03;;;;;;;;;;;;;;;;;;1485194;39;19952;-81
2021/04/01 20:50:12;;;;;;;;;;;;;;;;;;1488423;39;20011;-81
2021/04/01 20:51:13;;;;;;;;;;;;;;;;;;1486874;39;20048;-81
2021/04/01 20:52:14;;;;;;;;;;;;;;;;;;1494439;39;19928;-81
2021/04/01 20:53:17;;;;;;;;;;;;;;;;;;1493375;39;20466;-81
2021/04/01 20:54:21;;;;;;;;;;;;;;;;;;1488785;39;20257;-80
2021/04/01 20:55:22;;;;;;;;;;;;;;;;;;1484451;39;19932;-79
2021/04/01 20:56:23;;;;;;;;;;;;;;;;;;1482499;39;20292;-79
2021/04/01 20:57:24;;;;;;;;;;;;;;;;;;1484940;39;19951;-80
2021/04/01 20:58:27;;;;;;;;;;;;;;;;;;1492835;39;20022;-80
2021/04/01 20:59:31;;;;;;;;;;;;;;;;;;1492453;39;19928;-79
2021/04/01 21:00:37;;;;;;;;;;;;;;;;;;1485390;39;19929;-80
2021/04/01 21:01:39;;;;;;;;;;;;;;;;;;1487991;39;19935;-80
2021/04/01 21:02:40;;;;;;;;;;;;;;;;;;1486634;39;20044;-81
2021/04/01 21:03:44;;;;;;;;;;;;;;;;;;1481167;39;19937;-81
2021/04/01 21:04:48;;;;;;;;;;;;;;;;;;1485499;39;20050;-80
2021/04/01 21:05:52;;;;;;;;;;;;;;;;;;1485133;39;19928;-81
2021/04/01 21:06:54;;;;;;;;;;;;;;;;;;1489759;39;20050;-81
2021/04/01 21:07:58;;;;;;;;;;;;;;;;;;1487485;39;20378;-83
2021/04/01 21:09:02;;;;;;;;;;;;;;;;;;1485315;39;20305;-81
2021/04/01 21:10:07;;;;;;;;;;;;;;;;;;1488305;39;20160;-81
2021/04/01 21:11:09;;;;;;;;;;;;;;;;;;1497740;39;19967;-80
2021/04/01 21:12:12;;;;;;;;;;;;;;;;;;1488875;39;20582;-80
2021/04/01 21:13:14;;;;;;;;;;;;;;;;;;1481223;40;19928;-79
2021/04/01 21:14:18;;;;;;;;;;;;;;;;;;1485294;39;19951;-81
2021/04/01 21:15:23;;;;;;;;;;;;;;;;;;1489249;39;20519;-79
2021/04/01 21:16:24;;;;;;;;;;;;;;;;;;1493401;39;19931;-80
2021/04/01 21:17:25;;;;;;;;;;;;;;;;;;1494087;39;20012;-80
2021/04/01 21:18:30;;;;;;;;;;;;;;;;;;1490300;39;19936;-80
2021/04/01 21:19:32;;;;;;;;;;;;;;;;;;1492980;39;19928;-81
2021/04/01 21:20:36;;;;;;;;;;;;;;;;;;1488123;39;20838;-80
2021/04/01 21:21:38;;;;;;;;;;;;;;;;;;1489337;39;20384;-81
2021/04/01 21:22:41;;;;;;;;;;;;;;;;;;1493411;39;20037;-80
2021/04/01 21:23:42;;;;;;;;;;;;;;;;;;1494327;39;20067;-82
2021/04/01 21:24:43;;;;;;;;;;;;;;;;;;1488891;39;19932;-80
2021/04/01 21:25:46;;;;;;;;;;;;;;;;;;1489355;39;19975;-81
2021/04/01 21:26:49;;;;;;;;;;;;;;;;;;1488608;39;20248;-79
2021/04/01 21:27:54;;;;;;;;;;;;;;;;;;1485294;39;19936;-83
2021/04/01 21:28:57;;;;;;;;;;;;;;;;;;1489412;39;20707;-84
2021/04/01 21:29:58;;;;;;;;;;;;;;;;;;1482862;39;20081;-85
2021/04/01 21:31:02;;;;;;;;;;;;;;;;;;1490438;39;19932;-83
2021/04/01 21:32:06;;;;;;;;;;;;;;;;;;1489376;39;19932;-83
2021/04/01 21:33:09;;;;;;;;;;;;;;;;;;1488481;39;19932;-82
2021/04/01 21:34:10;;;;;;;;;;;;;;;;;;1491456;39;20014;-82
2021/04/01 21:35:13;;;;;;;;;;;;;;;;;;1494166;39;20055;-83
2021/04/01 21:36:17;;;;;;;;;;;;;;;;;;1494648;39;20268;-83
2021/04/01 21:37:21;;;;;;;;;;;;;;;;;;1486363;39;19960;-81
2021/04/01 21:38:23;;;;;;;;;;;;;;;;;;1494708;39;19923;-81
2021/04/01 21:39:24;;;;;;;;;;;;;;;;;;1489637;39;20260;-81
2021/04/01 21:40:27;;;;;;;;;;;;;;;;;;1486350;39;20023;-83
2021/04/01 21:41:28;;;;;;;;;;;;;;;;;;1490065;39;20216;-80
2021/04/01 21:42:32;;;;;;;;;;;;;;;;;;1486159;39;19967;-82
2021/04/01 21:43:34;;;;;;;;;;;;;;;;;;1490489;39;20045;-86
2021/04/01 21:44:38;;;;;;;;;;;;;;;;;;1490129;39;20018;-80
2021/04/01 21:45:39;;;;;;;;;;;;;;;;;;1489132;39;19947;-82
2021/04/01 21:46:40;;;;;;;;;;;;;;;;;;1494484;39;19966;-80
2021/04/01 21:47:41;;;;;;;;;;;;;;;;;;1493919;39;19959;-80
2021/04/01 21:48:45;;;;;;;;;;;;;;;;;;1494643;39;19928;-79
2021/04/01 21:49:49;;;;;;;;;;;;;;;;;;1494269;39;19955;-81
2021/04/01 21:50:52;;;;;;;;;;;;;;;;;;1494613;39;19940;-80
2021/04/01 21:51:55;;;;;;;;;;;;;;;;;;1494139;39;19952;-79
2021/04/01 21:52:57;;;;;;;;;;;;;;;;;;1489851;39;19975;-77
2021/04/01 21:54:00;;;;;;;;;;;;;;;;;;1485953;39;20060;-79
2021/04/01 21:55:06;;;;;;;;;;;;;;;;;;1487295;39;19932;-81
2021/04/01 21:56:07;;;;;;;;;;;;;;;;;;1495166;39;20030;-81
2021/04/01 21:57:08;;;;;;;;;;;;;;;;;;1488482;39;20249;-78
2021/04/01 21:58:16;;;;;;;;;;;;;;;;;;1492684;39;19943;-79
2021/04/01 21:59:20;;;;;;;;;;;;;;;;;;1489827;39;20036;-80
2021/04/01 22:00:26;;;;;;;;;;;;;;;;;;1482900;39;20015;-80
2021/04/01 22:01:31;;;;;;;;;;;;;;;;;;1489583;39;19928;-81
2021/04/01 22:02:32;;;;;;;;;;;;;;;;;;1488164;39;20046;-78
2021/04/01 22:03:36;;;;;;;;;;;;;;;;;;1480712;39;20018;-79